Skip to content.

Waikato

  

Waikawau Bay - WKB

Logged in to unit HSN10643 as: Guest
(Last data received Sun 25 Feb 2018 09:10:00 - 47 seconds ago)

All FWI Graphs Hourly FWI Daily FWI Download FWI Data

Hourly FWI Logs | Period From 09:10 24/02/2018 to 09:10 25/02/2018

Change the DoC% for the 24hr period starting 12:00pm 24/2/2018 to

If the date above is the current day, then all future logs will inherit this value until such time as it is changed again. If you wish to change historic values you can do so by going back to the day you want to alter (navigate via the graphs) and change the DoC% there (however this will only affect that day).

WindRainHourly FWIsDaily FWIsForestGrassScrub
DateTime (NZST)Temp (C)RH (%)Dir (deg)Speed (km/h)Hourly (mm)Daily (mm)FFMCISIHFWIFFMCDMCDCISIBUIFWIDSRROS (m/h)FFI (kW/m)FFDCDoC (%)ROS (m/h)GFI (kW/m)GFDCROS (m/h)SFI (kW/m)SFDC
25/02/2018 0800 19.4 82.9 0 8.3 0.0 79.8 1.7 1.7 23 8 L 0 0 0 L 303 3033 V
25/02/2018 0700 14.8 93.1 0 4.3 0.0 79.8 1.4 1.0 17 6 L 0 0 0 L 228 2276 V
25/02/2018 0600 13.8 93.2 0 3.2 0.0 80.0 1.3 0.9 16 6 L 0 0 0 L 220 2196 V
25/02/2018 0500 14.3 92.3 0 3.2 0.0 80.4 1.4 1.0 17 6 L 0 0 0 L 230 2303 V
25/02/2018 0400 14.8 91.9 0 3.2 0.0 80.7 1.4 1.1 18 6 L 0 0 0 L 241 2410 V
25/02/2018 0300 16.3 93.7 0 9.0 0.0 81.0 2.0 2.2 30 10 M 0 0 0 L 377 3768 V
25/02/2018 0200 14.4 91.9 0 3.6 0.0 81.5 1.6 1.5 21 7 L 0 0 0 L 283 2835 V
25/02/2018 0100 14.8 92.0 0 4.7 0.0 82.0 1.8 1.9 25 9 L 0 0 0 L 328 3282 V
25/02/2018 0000 14.8 91.5 0 3.2 0.0 82.5 1.8 1.8 25 9 L 0 0 0 L 324 3244 V
24/02/2018 2300 15.2 90.6 0 3.2 0.0 83.0 1.9 2.1 28 10 L 0 0 0 L 356 3558 V
24/02/2018 2200 15.6 89.6 0 4.0 0.0 83.6 2.1 2.4 33 11 M 0 0 0 L 412 4118 E
24/02/2018 2100 16.4 87.1 0 2.5 0.0 84.2 2.1 2.4 33 11 M 0 0 0 L 415 4146 E
24/02/2018 2000 17.6 83.7 0 2.9 0.0 84.7 2.3 2.7 38 13 M 0 0 0 L 465 4646 E
24/02/2018 1900 19.6 78.1 0 5.4 0.0 85.1 2.8 3.4 50 17 M 0 0 0 L 590 5904 E
24/02/2018 1800 21.9 70.3 0 9.7 0.0 85.3 3.6 4.5 73 25 M 0 0 0 L 812 8116 E
24/02/2018 1700 22.6 68.6 0 13.3 0.0 85.3 4.3 5.4 94 33 M 0 0 0 L 1014 10136 E
24/02/2018 1600 22.3 67.0 0 15.1 0.0 85.3 4.7 5.9 107 37 M 0 0 0 L 1129 11289 E
24/02/2018 1500 24.1 50.9 0 16.6 0.0 85.3 5.1 6.4 119 41 M 0 0 0 L 1228 12284 E
24/02/2018 1400 23.4 51.7 0 18.4 0.0 84.8 5.2 6.5 122 42 M 0 0 0 L 1258 12585 E
24/02/2018 1300 23.2 60.3 0 19.1 0.0 84.2 5.0 6.2 116 40 M 0 0 0 L 1204 12038 E
24/02/2018 1200 22.5 64.1 0 20.9 0.0 0.0 83.9 5.2 6.5 84.9 8.4 75.7 6.0 13.2 7.4 0.9 123 43 M 0 0 0 L 1268 12684 E
24/02/2018 1100 22.7 61.7 0 18.0 0.0 83.6 4.3 4.9 80 18 M 0 0 0 L 1030 10295 E
24/02/2018 1000 21.9 67.2 0 17.3 0.0 83.3 4.0 4.5 71 16 M 0 0 0 L 930 9300 E
24/02/2018 0900 21.6 70.7 0 10.4 0.0 83.1 2.8 2.9 41 9 L 0 0 0 L 581 5808 E